sensor_id;sensor_type;location;lat;lon;timestamp;pressure;altitude;pressure_sealevel;temperature;humidity
80137;BME280;69466;55.948;37.484;2023-09-08T00:00:18;99917.91;;;11.77;67.56
80137;BME280;69466;55.948;37.484;2023-09-08T00:02:52;99927.41;;;11.92;67.39
80137;BME280;69466;55.948;37.484;2023-09-08T00:05:20;99930.53;;;11.96;67.52
80137;BME280;69466;55.948;37.484;2023-09-08T00:10:58;99919.03;;;11.94;67.52
80137;BME280;69466;55.948;37.484;2023-09-08T00:13:25;99902.88;;;11.74;67.40
80137;BME280;69466;55.948;37.484;2023-09-08T00:16:22;99923.25;;;11.90;67.37
80137;BME280;69466;55.948;37.484;2023-09-08T00:18:54;99920.81;;;11.82;67.42
80137;BME280;69466;55.948;37.484;2023-09-08T00:26:11;99925.53;;;11.93;67.62
80137;BME280;69466;55.948;37.484;2023-09-08T00:28:57;99926.81;;;11.90;67.43
80137;BME280;69466;55.948;37.484;2023-09-08T00:31:23;99909.03;;;11.88;67.61
80137;BME280;69466;55.948;37.484;2023-09-08T00:33:49;99878.69;;;11.60;67.46
80137;BME280;69466;55.948;37.484;2023-09-08T00:36:15;99883.31;;;11.59;67.81
80137;BME280;69466;55.948;37.484;2023-09-08T00:38:44;99922.91;;;11.80;68.13
80137;BME280;69466;55.948;37.484;2023-09-08T00:41:28;99914.13;;;11.78;67.92
80137;BME280;69466;55.948;37.484;2023-09-08T00:43:54;99881.81;;;11.63;68.12
80137;BME280;69466;55.948;37.484;2023-09-08T00:46:21;99868.88;;;11.59;67.88
80137;BME280;69466;55.948;37.484;2023-09-08T00:48:48;99916.81;;;11.84;67.98
80137;BME280;69466;55.948;37.484;2023-09-08T00:51:22;99906.59;;;11.80;67.80
80137;BME280;69466;55.948;37.484;2023-09-08T00:53:49;99857.66;;;11.48;67.75
80137;BME280;69466;55.948;37.484;2023-09-08T00:56:20;99915.75;;;11.85;67.48
80137;BME280;69466;55.948;37.484;2023-09-08T00:58:46;99911.81;;;11.81;67.74
80137;BME280;69466;55.948;37.484;2023-09-08T01:01:17;99889.06;;;11.69;67.86
80137;BME280;69466;55.948;37.484;2023-09-08T01:03:44;99908.03;;;11.82;67.95
80137;BME280;69466;55.948;37.484;2023-09-08T01:06:10;99905.75;;;11.79;67.92
80137;BME280;69466;55.948;37.484;2023-09-08T01:08:36;99892.41;;;11.71;68.07
80137;BME280;69466;55.948;37.484;2023-09-08T01:11:03;99905.16;;;11.71;67.84
80137;BME280;69466;55.948;37.484;2023-09-08T01:13:58;99901.81;;;11.69;68.34
80137;BME280;69466;55.948;37.484;2023-09-08T01:16:27;99903.91;;;11.73;68.56
80137;BME280;69466;55.948;37.484;2023-09-08T01:18:54;99901.00;;;11.68;68.76
80137;BME280;69466;55.948;37.484;2023-09-08T01:21:38;99902.66;;;11.69;68.36
80137;BME280;69466;55.948;37.484;2023-09-08T01:24:37;99891.00;;;11.62;68.89
80137;BME280;69466;55.948;37.484;2023-09-08T01:30:08;99899.16;;;11.62;70.05
80137;BME280;69466;55.948;37.484;2023-09-08T01:32:35;99897.31;;;11.56;70.17
80137;BME280;69466;55.948;37.484;2023-09-08T01:35:04;99892.91;;;11.55;70.80
80137;BME280;69466;55.948;37.484;2023-09-08T01:37:32;99899.25;;;11.49;71.07
80137;BME280;69466;55.948;37.484;2023-09-08T01:39:58;99887.63;;;11.35;71.44
80137;BME280;69466;55.948;37.484;2023-09-08T01:42:30;99864.50;;;11.20;72.20
80137;BME280;69466;55.948;37.484;2023-09-08T01:45:06;99869.53;;;11.23;73.33
80137;BME280;69466;55.948;37.484;2023-09-08T01:47:38;99849.72;;;11.09;73.65
80137;BME280;69466;55.948;37.484;2023-09-08T01:50:05;99885.75;;;11.36;73.89
80137;BME280;69466;55.948;37.484;2023-09-08T01:53:03;99879.88;;;11.32;73.20
80137;BME280;69466;55.948;37.484;2023-09-08T01:55:51;99877.22;;;11.26;73.27
80137;BME280;69466;55.948;37.484;2023-09-08T01:58:24;99818.31;;;10.88;73.66
80137;BME280;69466;55.948;37.484;2023-09-08T02:01:21;99868.03;;;11.27;73.64
80137;BME280;69466;55.948;37.484;2023-09-08T02:07:20;99846.66;;;10.99;74.56
80137;BME280;69466;55.948;37.484;2023-09-08T02:09:50;99840.16;;;11.00;74.59
80137;BME280;69466;55.948;37.484;2023-09-08T02:12:19;99853.28;;;11.09;75.02
80137;BME280;69466;55.948;37.484;2023-09-08T02:14:49;99854.94;;;11.10;74.65
80137;BME280;69466;55.948;37.484;2023-09-08T02:17:18;99855.78;;;11.11;74.90
80137;BME280;69466;55.948;37.484;2023-09-08T02:19:53;99843.25;;;11.10;74.82
80137;BME280;69466;55.948;37.484;2023-09-08T02:22:26;99782.69;;;10.72;74.97
80137;BME280;69466;55.948;37.484;2023-09-08T02:24:52;99831.63;;;10.96;74.62
80137;BME280;69466;55.948;37.484;2023-09-08T02:27:37;99800.97;;;10.89;75.10
80137;BME280;69466;55.948;37.484;2023-09-08T02:30:04;99828.06;;;11.02;75.07
80137;BME280;69466;55.948;37.484;2023-09-08T02:32:31;99806.59;;;10.88;75.15
80137;BME280;69466;55.948;37.484;2023-09-08T02:34:57;99830.94;;;11.07;75.17
80137;BME280;69466;55.948;37.484;2023-09-08T02:37:23;99791.41;;;10.80;75.09
80137;BME280;69466;55.948;37.484;2023-09-08T02:39:50;99821.41;;;10.98;75.13
80137;BME280;69466;55.948;37.484;2023-09-08T02:42:16;99795.16;;;10.86;75.12
80137;BME280;69466;55.948;37.484;2023-09-08T02:44:42;99816.44;;;10.89;76.10
80137;BME280;69466;55.948;37.484;2023-09-08T02:47:28;99779.94;;;10.78;75.34
80137;BME280;69466;55.948;37.484;2023-09-08T02:49:57;99787.00;;;10.86;75.44
80137;BME280;69466;55.948;37.484;2023-09-08T02:52:34;99800.97;;;10.89;75.82
80137;BME280;69466;55.948;37.484;2023-09-08T02:55:11;99816.53;;;11.07;76.05
80137;BME280;69466;55.948;37.484;2023-09-08T02:57:39;99820.94;;;11.08;75.61
80137;BME280;69466;55.948;37.484;2023-09-08T03:00:08;99793.44;;;10.91;75.34
80137;BME280;69466;55.948;37.484;2023-09-08T03:02:37;99777.97;;;10.92;76.29
80137;BME280;69466;55.948;37.484;2023-09-08T03:05:03;99809.63;;;11.04;75.80
80137;BME280;69466;55.948;37.484;2023-09-08T03:07:54;99812.13;;;11.13;75.86
80137;BME280;69466;55.948;37.484;2023-09-08T03:10:24;99808.97;;;11.09;75.33
80137;BME280;69466;55.948;37.484;2023-09-08T03:12:51;99805.31;;;10.97;76.01
80137;BME280;69466;55.948;37.484;2023-09-08T03:15:22;99815.31;;;11.03;75.88
80137;BME280;69466;55.948;37.484;2023-09-08T03:18:13;99800.69;;;11.04;76.06
80137;BME280;69466;55.948;37.484;2023-09-08T03:20:40;99770.47;;;10.94;75.28
80137;BME280;69466;55.948;37.484;2023-09-08T03:23:13;99791.66;;;11.10;75.36
80137;BME280;69466;55.948;37.484;2023-09-08T03:26:13;99763.34;;;10.99;75.25
80137;BME280;69466;55.948;37.484;2023-09-08T03:28:41;99767.44;;;11.08;74.57
80137;BME280;69466;55.948;37.484;2023-09-08T03:31:07;99765.00;;;11.32;73.84
80137;BME280;69466;55.948;37.484;2023-09-08T03:33:35;99788.59;;;12.06;72.84
80137;BME280;69466;55.948;37.484;2023-09-08T03:36:07;99736.75;;;12.55;69.65
80137;BME280;69466;55.948;37.484;2023-09-08T03:38:40;99793.63;;;13.64;66.84
80137;BME280;69466;55.948;37.484;2023-09-08T03:42:02;99753.88;;;14.50;62.72
80137;BME280;69466;55.948;37.484;2023-09-08T03:44:28;99758.34;;;15.41;60.24
80137;BME280;69466;55.948;37.484;2023-09-08T03:46:54;99753.66;;;16.25;57.42
80137;BME280;69466;55.948;37.484;2023-09-08T03:53:35;99731.47;;;16.05;55.80
80137;BME280;69466;55.948;37.484;2023-09-08T03:56:07;99747.66;;;15.73;56.72
80137;BME280;69466;55.948;37.484;2023-09-08T03:58:51;99789.72;;;15.67;57.81
80137;BME280;69466;55.948;37.484;2023-09-08T04:01:20;99786.19;;;15.09;59.76
80137;BME280;69466;55.948;37.484;2023-09-08T04:03:47;99747.16;;;14.69;59.84
80137;BME280;69466;55.948;37.484;2023-09-08T04:06:15;99763.22;;;14.54;60.50
80137;BME280;69466;55.948;37.484;2023-09-08T04:08:41;99781.81;;;14.80;60.56
80137;BME280;69466;55.948;37.484;2023-09-08T04:11:10;99722.94;;;15.18;58.09
80137;BME280;69466;55.948;37.484;2023-09-08T04:13:41;99736.16;;;15.09;58.70
80137;BME280;69466;55.948;37.484;2023-09-08T04:16:13;99772.41;;;14.88;59.65
80137;BME280;69466;55.948;37.484;2023-09-08T04:18:39;99752.06;;;14.55;59.90
80137;BME280;69466;55.948;37.484;2023-09-08T04:21:08;99748.09;;;14.23;60.53
80137;BME280;69466;55.948;37.484;2023-09-08T04:23:34;99782.25;;;14.26;61.08
80137;BME280;69466;55.948;37.484;2023-09-08T04:26:00;99778.00;;;14.06;61.68
80137;BME280;69466;55.948;37.484;2023-09-08T04:28:27;99766.13;;;13.89;62.26
80137;BME280;69466;55.948;37.484;2023-09-08T04:30:59;99759.25;;;13.75;62.47
80137;BME280;69466;55.948;37.484;2023-09-08T04:33:29;99756.41;;;13.58;62.70
80137;BME280;69466;55.948;37.484;2023-09-08T04:35:59;99730.03;;;13.17;63.04
80137;BME280;69466;55.948;37.484;2023-09-08T04:38:55;99737.59;;;13.15;63.11
80137;BME280;69466;55.948;37.484;2023-09-08T04:41:31;99731.38;;;13.08;63.56
80137;BME280;69466;55.948;37.484;2023-09-08T04:43:57;99724.38;;;13.01;63.78
80137;BME280;69466;55.948;37.484;2023-09-08T04:46:24;99716.28;;;12.82;64.41
80137;BME280;69466;55.948;37.484;2023-09-08T04:48:55;99756.78;;;13.20;64.39
80137;BME280;69466;55.948;37.484;2023-09-08T04:51:30;99759.81;;;13.42;63.99
80137;BME280;69466;55.948;37.484;2023-09-08T04:53:56;99723.69;;;13.47;62.78
80137;BME280;69466;55.948;37.484;2023-09-08T04:56:29;99718.00;;;13.83;61.88
80137;BME280;69466;55.948;37.484;2023-09-08T04:58:57;99717.50;;;13.98;60.54
80137;BME280;69466;55.948;37.484;2023-09-08T05:01:41;99738.72;;;14.19;60.05
80137;BME280;69466;55.948;37.484;2023-09-08T05:04:09;99733.75;;;14.16;60.16
80137;BME280;69466;55.948;37.484;2023-09-08T05:11:02;99726.75;;;13.85;60.59
80137;BME280;69466;55.948;37.484;2023-09-08T05:13:36;99735.19;;;13.72;60.94
80137;BME280;69466;55.948;37.484;2023-09-08T05:16:15;99705.06;;;13.55;61.29
80137;BME280;69466;55.948;37.484;2023-09-08T05:18:52;99726.78;;;13.97;60.38
80137;BME280;69466;55.948;37.484;2023-09-08T05:21:19;99705.41;;;14.57;57.77
80137;BME280;69466;55.948;37.484;2023-09-08T05:26:42;99712.19;;;15.94;54.79
80137;BME280;69466;55.948;37.484;2023-09-08T05:29:08;99675.66;;;15.67;54.65
80137;BME280;69466;55.948;37.484;2023-09-08T05:31:44;99694.88;;;15.39;55.54
80137;BME280;69466;55.948;37.484;2023-09-08T05:34:11;99706.09;;;15.09;56.18
80137;BME280;69466;55.948;37.484;2023-09-08T05:36:38;99702.81;;;14.79;56.75
80137;BME280;69466;55.948;37.484;2023-09-08T05:39:08;99704.00;;;14.83;56.64
80137;BME280;69466;55.948;37.484;2023-09-08T05:41:34;99710.31;;;15.00;56.34
80137;BME280;69466;55.948;37.484;2023-09-08T05:44:09;99697.13;;;14.80;56.38
80137;BME280;69466;55.948;37.484;2023-09-08T05:46:55;99710.84;;;14.85;56.77
80137;BME280;69466;55.948;37.484;2023-09-08T05:52:16;99663.78;;;14.67;56.67
80137;BME280;69466;55.948;37.484;2023-09-08T05:54:43;99689.00;;;14.85;57.12
80137;BME280;69466;55.948;37.484;2023-09-08T05:57:11;99691.72;;;14.69;57.04
80137;BME280;69466;55.948;37.484;2023-09-08T05:59:43;99649.44;;;14.43;56.75
80137;BME280;69466;55.948;37.484;2023-09-08T06:02:10;99660.63;;;14.18;57.10
80137;BME280;69466;55.948;37.484;2023-09-08T06:04:36;99685.75;;;14.43;56.97
80137;BME280;69466;55.948;37.484;2023-09-08T06:07:06;99669.88;;;14.29;58.17
80137;BME280;69466;55.948;37.484;2023-09-08T06:09:57;99675.06;;;14.30;57.68
80137;BME280;69466;55.948;37.484;2023-09-08T06:12:28;99646.25;;;14.23;57.52
80137;BME280;69466;55.948;37.484;2023-09-08T06:15:08;99673.03;;;14.49;56.24
80137;BME280;69466;55.948;37.484;2023-09-08T06:17:37;99644.31;;;14.35;56.48
80137;BME280;69466;55.948;37.484;2023-09-08T06:23:49;99633.72;;;14.10;55.97
80137;BME280;69466;55.948;37.484;2023-09-08T06:26:50;99658.69;;;14.30;56.46
80137;BME280;69466;55.948;37.484;2023-09-08T06:29:40;99653.59;;;14.34;56.64
80137;BME280;69466;55.948;37.484;2023-09-08T06:40:32;99596.28;;;14.79;53.92
80137;BME280;69466;55.948;37.484;2023-09-08T06:43:07;99603.59;;;15.06;52.99
80137;BME280;69466;55.948;37.484;2023-09-08T06:46:25;99640.25;;;15.61;52.50
80137;BME280;69466;55.948;37.484;2023-09-08T06:49:17;99622.72;;;15.78;52.18
80137;BME280;69466;55.948;37.484;2023-09-08T06:51:45;99588.25;;;15.99;50.66
80137;BME280;69466;55.948;37.484;2023-09-08T06:54:19;99600.56;;;17.04;48.48
80137;BME280;69466;55.948;37.484;2023-09-08T06:56:49;99605.72;;;18.36;46.08
80137;BME280;69466;55.948;37.484;2023-09-08T06:59:15;99619.59;;;18.87;44.90
80137;BME280;69466;55.948;37.484;2023-09-08T07:01:51;99614.38;;;18.85;44.81
80137;BME280;69466;55.948;37.484;2023-09-08T07:04:43;99541.25;;;18.74;43.08
80137;BME280;69466;55.948;37.484;2023-09-08T07:07:10;99573.66;;;19.28;42.85
80137;BME280;69466;55.948;37.484;2023-09-08T07:09:38;99597.53;;;19.73;41.86
80137;BME280;69466;55.948;37.484;2023-09-08T07:12:05;99566.41;;;19.77;41.23
80137;BME280;69466;55.948;37.484;2023-09-08T07:15:23;99562.09;;;19.31;42.75
80137;BME280;69466;55.948;37.484;2023-09-08T07:17:52;99534.63;;;19.11;42.34
80137;BME280;69466;55.948;37.484;2023-09-08T07:23:52;99539.34;;;19.95;40.71
80137;BME280;69466;55.948;37.484;2023-09-08T07:29:17;99537.31;;;19.31;41.50
80137;BME280;69466;55.948;37.484;2023-09-08T07:31:45;99534.59;;;19.21;41.46
80137;BME280;69466;55.948;37.484;2023-09-08T07:34:11;99556.31;;;19.27;41.71
80137;BME280;69466;55.948;37.484;2023-09-08T07:36:37;99552.16;;;19.35;41.55
80137;BME280;69466;55.948;37.484;2023-09-08T07:39:04;99563.69;;;19.57;41.43
80137;BME280;69466;55.948;37.484;2023-09-08T07:41:30;99555.50;;;19.32;41.73
80137;BME280;69466;55.948;37.484;2023-09-08T07:43:56;99561.25;;;19.30;42.00
80137;BME280;69466;55.948;37.484;2023-09-08T07:46:24;99542.06;;;19.05;42.20
80137;BME280;69466;55.948;37.484;2023-09-08T07:48:50;99553.00;;;19.25;42.15
80137;BME280;69466;55.948;37.484;2023-09-08T07:51:16;99562.34;;;19.50;41.70
80137;BME280;69466;55.948;37.484;2023-09-08T07:53:42;99552.84;;;19.96;41.19
80137;BME280;69466;55.948;37.484;2023-09-08T07:56:08;99557.44;;;20.16;40.31
80137;BME280;69466;55.948;37.484;2023-09-08T07:58:37;99551.75;;;19.92;40.82
80137;BME280;69466;55.948;37.484;2023-09-08T08:01:05;99539.47;;;19.64;41.47
80137;BME280;69466;55.948;37.484;2023-09-08T08:03:31;99538.63;;;20.33;40.31
80137;BME280;69466;55.948;37.484;2023-09-08T08:05:57;99534.63;;;20.49;39.91
80137;BME280;69466;55.948;37.484;2023-09-08T08:08:24;99525.22;;;20.11;40.87
80137;BME280;69466;55.948;37.484;2023-09-08T08:10:50;99518.66;;;20.02;40.89
80137;BME280;69466;55.948;37.484;2023-09-08T08:13:15;99523.44;;;19.76;41.67
80137;BME280;69466;55.948;37.484;2023-09-08T08:15:42;99518.31;;;19.34;42.43
80137;BME280;69466;55.948;37.484;2023-09-08T08:18:08;99498.88;;;18.95;42.89
80137;BME280;69466;55.948;37.484;2023-09-08T08:20:37;99499.72;;;18.66;43.59
80137;BME280;69466;55.948;37.484;2023-09-08T08:23:05;99517.31;;;18.54;43.97
80137;BME280;69466;55.948;37.484;2023-09-08T08:25:31;99519.19;;;18.44;44.51
80137;BME280;69466;55.948;37.484;2023-09-08T08:27:59;99510.13;;;18.43;44.60
80137;BME280;69466;55.948;37.484;2023-09-08T08:30:27;99502.13;;;18.27;45.01
80137;BME280;69466;55.948;37.484;2023-09-08T08:32:56;99498.53;;;18.21;44.94
80137;BME280;69466;55.948;37.484;2023-09-08T08:35:22;99501.00;;;18.07;45.46
80137;BME280;69466;55.948;37.484;2023-09-08T08:37:52;99488.69;;;17.53;47.05
80137;BME280;69466;55.948;37.484;2023-09-08T08:40:18;99464.47;;;17.35;47.26
80137;BME280;69466;55.948;37.484;2023-09-08T08:43:05;99457.09;;;16.88;48.26
80137;BME280;69466;55.948;37.484;2023-09-08T08:45:32;99484.81;;;16.97;48.77
80137;BME280;69466;55.948;37.484;2023-09-08T08:48:05;99495.00;;;17.01;49.20
80137;BME280;69466;55.948;37.484;2023-09-08T08:54:01;99486.22;;;16.99;49.92
80137;BME280;69466;55.948;37.484;2023-09-08T08:56:35;99465.56;;;16.87;50.65
80137;BME280;69466;55.948;37.484;2023-09-08T08:59:03;99472.63;;;16.77;50.88
80137;BME280;69466;55.948;37.484;2023-09-08T09:01:32;99443.22;;;16.63;50.86
80137;BME280;69466;55.948;37.484;2023-09-08T09:04:05;99457.25;;;16.71;50.99
80137;BME280;69466;55.948;37.484;2023-09-08T09:06:32;99432.03;;;16.37;51.55
80137;BME280;69466;55.948;37.484;2023-09-08T09:08:59;99459.91;;;16.29;51.91
80137;BME280;69466;55.948;37.484;2023-09-08T09:11:27;99456.75;;;16.48;51.96
80137;BME280;69466;55.948;37.484;2023-09-08T09:14:00;99425.38;;;16.28;51.94
80137;BME280;69466;55.948;37.484;2023-09-08T09:16:26;99440.06;;;16.49;51.96
80137;BME280;69466;55.948;37.484;2023-09-08T09:19:09;99427.72;;;16.47;51.88
80137;BME280;69466;55.948;37.484;2023-09-08T09:21:44;99458.00;;;16.62;51.78
80137;BME280;69466;55.948;37.484;2023-09-08T09:24:37;99446.09;;;16.83;51.60
80137;BME280;69466;55.948;37.484;2023-09-08T09:27:43;99444.84;;;16.64;51.75
80137;BME280;69466;55.948;37.484;2023-09-08T09:30:14;99459.13;;;16.66;51.90
80137;BME280;69466;55.948;37.484;2023-09-08T09:32:40;99451.69;;;16.61;51.87
80137;BME280;69466;55.948;37.484;2023-09-08T09:35:07;99444.34;;;16.67;51.71
80137;BME280;69466;55.948;37.484;2023-09-08T09:37:33;99448.25;;;16.76;51.97
80137;BME280;69466;55.948;37.484;2023-09-08T09:40:00;99434.34;;;16.88;51.62
80137;BME280;69466;55.948;37.484;2023-09-08T09:42:28;99406.66;;;16.52;51.70
80137;BME280;69466;55.948;37.484;2023-09-08T09:44:57;99457.22;;;16.66;52.50
80137;BME280;69466;55.948;37.484;2023-09-08T09:47:26;99438.63;;;16.41;53.14
80137;BME280;69466;55.948;37.484;2023-09-08T09:49:53;99442.47;;;16.40;53.67
80137;BME280;69466;55.948;37.484;2023-09-08T09:52:31;99433.41;;;15.81;54.79
80137;BME280;69466;55.948;37.484;2023-09-08T09:54:59;99433.06;;;15.73;56.22
80137;BME280;69466;55.948;37.484;2023-09-08T09:57:26;99443.09;;;15.45;57.62
80137;BME280;69466;55.948;37.484;2023-09-08T09:59:53;99466.81;;;15.57;57.72
80137;BME280;69466;55.948;37.484;2023-09-08T10:02:21;99468.03;;;15.49;57.95
80137;BME280;69466;55.948;37.484;2023-09-08T10:04:48;99456.09;;;15.33;59.08
80137;BME280;69466;55.948;37.484;2023-09-08T10:07:16;99468.03;;;15.27;59.84
80137;BME280;69466;55.948;37.484;2023-09-08T10:09:42;99429.81;;;14.89;59.81
80137;BME280;69466;55.948;37.484;2023-09-08T10:12:09;99467.50;;;15.08;60.43
80137;BME280;69466;55.948;37.484;2023-09-08T10:14:41;99475.59;;;14.98;62.40
80137;BME280;69466;55.948;37.484;2023-09-08T10:17:12;99472.03;;;14.98;62.24
80137;BME280;69466;55.948;37.484;2023-09-08T10:19:40;99444.47;;;14.83;63.48
80137;BME280;69466;55.948;37.484;2023-09-08T10:22:11;99472.72;;;15.10;63.39
80137;BME280;69466;55.948;37.484;2023-09-08T10:24:38;99464.28;;;15.12;63.08
80137;BME280;69466;55.948;37.484;2023-09-08T10:27:11;99459.06;;;15.32;61.40
80137;BME280;69466;55.948;37.484;2023-09-08T10:29:38;99459.25;;;15.47;59.69
80137;BME280;69466;55.948;37.484;2023-09-08T10:32:07;99459.78;;;15.66;58.24
80137;BME280;69466;55.948;37.484;2023-09-08T10:34:35;99453.31;;;15.72;56.79
80137;BME280;69466;55.948;37.484;2023-09-08T10:37:01;99449.03;;;15.81;55.99
80137;BME280;69466;55.948;37.484;2023-09-08T10:39:36;99436.47;;;15.85;54.84
80137;BME280;69466;55.948;37.484;2023-09-08T10:47:34;99447.50;;;15.95;53.99
80137;BME280;69466;55.948;37.484;2023-09-08T10:50:05;99446.66;;;15.89;54.84
80137;BME280;69466;55.948;37.484;2023-09-08T10:52:32;99435.25;;;15.71;55.96
80137;BME280;69466;55.948;37.484;2023-09-08T10:55:00;99461.47;;;15.67;57.88
80137;BME280;69466;55.948;37.484;2023-09-08T10:57:33;99451.88;;;15.47;58.26
80137;BME280;69466;55.948;37.484;2023-09-08T11:00:06;99479.09;;;15.37;57.32
80137;BME280;69466;55.948;37.484;2023-09-08T11:02:56;99489.06;;;15.27;59.58
80137;BME280;69466;55.948;37.484;2023-09-08T11:05:22;99501.72;;;14.94;61.63
80137;BME280;69466;55.948;37.484;2023-09-08T11:07:50;99489.44;;;14.75;63.97
80137;BME280;69466;55.948;37.484;2023-09-08T11:10:18;99496.94;;;14.68;65.03
80137;BME280;69466;55.948;37.484;2023-09-08T11:12:45;99502.91;;;14.48;64.85
80137;BME280;69466;55.948;37.484;2023-09-08T11:15:20;99502.63;;;14.33;65.74
80137;BME280;69466;55.948;37.484;2023-09-08T11:17:46;99499.31;;;14.31;65.15
80137;BME280;69466;55.948;37.484;2023-09-08T11:20:26;99509.91;;;14.28;65.56
80137;BME280;69466;55.948;37.484;2023-09-08T11:22:55;99505.09;;;14.35;64.95
80137;BME280;69466;55.948;37.484;2023-09-08T11:25:21;99485.78;;;14.36;64.99
80137;BME280;69466;55.948;37.484;2023-09-08T11:27:48;99498.19;;;14.44;65.51
80137;BME280;69466;55.948;37.484;2023-09-08T11:30:17;99503.66;;;14.60;65.45
80137;BME280;69466;55.948;37.484;2023-09-08T11:32:46;99494.78;;;14.53;65.57
80137;BME280;69466;55.948;37.484;2023-09-08T11:35:12;99491.16;;;14.64;64.83
80137;BME280;69466;55.948;37.484;2023-09-08T11:37:41;99495.63;;;14.87;64.21
80137;BME280;69466;55.948;37.484;2023-09-08T11:40:10;99483.13;;;14.91;63.71
80137;BME280;69466;55.948;37.484;2023-09-08T11:42:42;99486.91;;;14.90;63.63
80137;BME280;69466;55.948;37.484;2023-09-08T11:45:19;99470.03;;;14.93;64.06
80137;BME280;69466;55.948;37.484;2023-09-08T11:47:49;99457.13;;;14.89;63.89
80137;BME280;69466;55.948;37.484;2023-09-08T11:50:18;99491.19;;;15.20;62.76
80137;BME280;69466;55.948;37.484;2023-09-08T11:52:46;99490.97;;;15.26;62.84
80137;BME280;69466;55.948;37.484;2023-09-08T11:55:16;99484.63;;;15.21;62.33
80137;BME280;69466;55.948;37.484;2023-09-08T11:57:46;99481.63;;;15.22;62.41
80137;BME280;69466;55.948;37.484;2023-09-08T12:00:13;99482.78;;;15.26;61.60
80137;BME280;69466;55.948;37.484;2023-09-08T12:02:48;99491.31;;;15.30;61.24
80137;BME280;69466;55.948;37.484;2023-09-08T12:05:28;99491.84;;;15.48;61.11
80137;BME280;69466;55.948;37.484;2023-09-08T12:08:03;99492.91;;;15.47;59.53
80137;BME280;69466;55.948;37.484;2023-09-08T12:10:42;99491.13;;;15.36;59.60
80137;BME280;69466;55.948;37.484;2023-09-08T12:13:09;99474.78;;;15.20;59.92
80137;BME280;69466;55.948;37.484;2023-09-08T12:15:37;99488.59;;;15.30;59.51
80137;BME280;69466;55.948;37.484;2023-09-08T12:18:08;99490.97;;;15.26;58.31
80137;BME280;69466;55.948;37.484;2023-09-08T12:20:35;99488.50;;;15.25;59.06
80137;BME280;69466;55.948;37.484;2023-09-08T12:23:04;99480.25;;;15.20;58.72
80137;BME280;69466;55.948;37.484;2023-09-08T12:25:30;99494.41;;;15.17;58.51
80137;BME280;69466;55.948;37.484;2023-09-08T12:28:01;99484.25;;;15.12;57.22
80137;BME280;69466;55.948;37.484;2023-09-08T12:30:28;99509.16;;;15.16;57.45
80137;BME280;69466;55.948;37.484;2023-09-08T12:33:01;99502.22;;;14.91;56.95
80137;BME280;69466;55.948;37.484;2023-09-08T12:35:27;99506.94;;;14.96;57.07
80137;BME280;69466;55.948;37.484;2023-09-08T12:38:05;99509.38;;;14.92;55.85
80137;BME280;69466;55.948;37.484;2023-09-08T12:40:34;99516.31;;;14.83;55.56
80137;BME280;69466;55.948;37.484;2023-09-08T12:43:01;99523.44;;;14.84;55.35
80137;BME280;69466;55.948;37.484;2023-09-08T12:45:28;99517.41;;;14.82;55.46
80137;BME280;69466;55.948;37.484;2023-09-08T12:47:57;99513.66;;;14.72;55.86
80137;BME280;69466;55.948;37.484;2023-09-08T12:50:25;99517.50;;;14.71;55.92
80137;BME280;69466;55.948;37.484;2023-09-08T12:52:51;99523.44;;;14.84;56.75
80137;BME280;69466;55.948;37.484;2023-09-08T12:55:18;99519.22;;;14.93;56.01
80137;BME280;69466;55.948;37.484;2023-09-08T12:57:44;99528.25;;;14.94;56.31
80137;BME280;69466;55.948;37.484;2023-09-08T13:00:11;99503.34;;;14.74;56.09
80137;BME280;69466;55.948;37.484;2023-09-08T13:02:37;99528.25;;;14.77;55.14
80137;BME280;69466;55.948;37.484;2023-09-08T13:05:03;99530.72;;;14.79;54.42
80137;BME280;69466;55.948;37.484;2023-09-08T13:07:32;99531.72;;;14.73;54.06
80137;BME280;69466;55.948;37.484;2023-09-08T13:09:58;99533.13;;;14.75;54.16
80137;BME280;69466;55.948;37.484;2023-09-08T13:12:24;99528.66;;;14.69;53.64
80137;BME280;69466;55.948;37.484;2023-09-08T13:14:51;99521.53;;;14.68;53.15
80137;BME280;69466;55.948;37.484;2023-09-08T13:17:17;99543.56;;;14.78;52.92
80137;BME280;69466;55.948;37.484;2023-09-08T13:19:47;99534.84;;;14.81;53.04
80137;BME280;69466;55.948;37.484;2023-09-08T13:22:13;99539.06;;;14.72;52.72
80137;BME280;69466;55.948;37.484;2023-09-08T13:24:40;99545.47;;;14.78;53.37
80137;BME280;69466;55.948;37.484;2023-09-08T13:27:06;99530.25;;;14.65;53.08
80137;BME280;69466;55.948;37.484;2023-09-08T13:29:34;99549.44;;;14.70;52.55
80137;BME280;69466;55.948;37.484;2023-09-08T13:32:00;99553.81;;;14.71;52.35
80137;BME280;69466;55.948;37.484;2023-09-08T13:34:27;99560.19;;;14.60;52.69
80137;BME280;69466;55.948;37.484;2023-09-08T13:36:53;99554.13;;;14.58;52.38
80137;BME280;69466;55.948;37.484;2023-09-08T13:39:19;99563.16;;;14.42;52.61
80137;BME280;69466;55.948;37.484;2023-09-08T13:41:53;99561.47;;;14.41;52.61
80137;BME280;69466;55.948;37.484;2023-09-08T13:44:23;99565.97;;;14.47;52.61
80137;BME280;69466;55.948;37.484;2023-09-08T13:46:53;99567.88;;;14.35;52.94
80137;BME280;69466;55.948;37.484;2023-09-08T13:49:22;99571.34;;;14.30;53.05
80137;BME280;69466;55.948;37.484;2023-09-08T13:51:54;99577.63;;;14.31;53.70
80137;BME280;69466;55.948;37.484;2023-09-08T13:54:20;99577.63;;;14.31;53.83
80137;BME280;69466;55.948;37.484;2023-09-08T13:56:58;99582.63;;;14.34;53.52
80137;BME280;69466;55.948;37.484;2023-09-08T13:59:26;99581.72;;;14.16;53.77
80137;BME280;69466;55.948;37.484;2023-09-08T14:01:52;99576.56;;;14.03;53.43
80137;BME280;69466;55.948;37.484;2023-09-08T14:04:23;99580.22;;;14.09;53.53
80137;BME280;69466;55.948;37.484;2023-09-08T14:06:49;99594.28;;;13.89;53.07